sensor_id;sensor_type;location;lat;lon;timestamp;temperature;humidity
26990;DHT22;14537;47.788;11.858;2022-08-21T00:00:50;15.70;99.90
26990;DHT22;14537;47.788;11.858;2022-08-21T00:03:19;15.70;99.90
26990;DHT22;14537;47.788;11.858;2022-08-21T00:05:46;15.60;99.90
26990;DHT22;14537;47.788;11.858;2022-08-21T00:08:12;15.60;99.90
26990;DHT22;14537;47.788;11.858;2022-08-21T00:10:39;15.60;99.90
26990;DHT22;14537;47.788;11.858;2022-08-21T00:13:05;15.50;99.90
26990;DHT22;14537;47.788;11.858;2022-08-21T00:15:32;15.50;99.90
26990;DHT22;14537;47.788;11.858;2022-08-21T00:17:57;15.50;99.90
26990;DHT22;14537;47.788;11.858;2022-08-21T00:20:24;15.50;99.90
26990;DHT22;14537;47.788;11.858;2022-08-21T00:22:49;15.50;99.90
26990;DHT22;14537;47.788;11.858;2022-08-21T00:25:16;15.50;99.90
26990;DHT22;14537;47.788;11.858;2022-08-21T00:27:42;15.60;99.90
26990;DHT22;14537;47.788;11.858;2022-08-21T00:30:08;15.50;99.90
26990;DHT22;14537;47.788;11.858;2022-08-21T00:32:35;15.60;99.90
26990;DHT22;14537;47.788;11.858;2022-08-21T00:35:01;15.60;99.90
26990;DHT22;14537;47.788;11.858;2022-08-21T00:37:27;15.60;99.90
26990;DHT22;14537;47.788;11.858;2022-08-21T00:39:52;15.60;99.90
26990;DHT22;14537;47.788;11.858;2022-08-21T00:42:18;15.60;99.90
26990;DHT22;14537;47.788;11.858;2022-08-21T00:44:46;15.60;99.90
26990;DHT22;14537;47.788;11.858;2022-08-21T00:47:12;15.60;99.90
26990;DHT22;14537;47.788;11.858;2022-08-21T00:49:38;15.50;99.90
26990;DHT22;14537;47.788;11.858;2022-08-21T00:52:04;15.50;99.90
26990;DHT22;14537;47.788;11.858;2022-08-21T00:54:30;15.50;99.90
26990;DHT22;14537;47.788;11.858;2022-08-21T00:56:59;15.50;99.90
26990;DHT22;14537;47.788;11.858;2022-08-21T00:59:25;15.50;99.90
26990;DHT22;14537;47.788;11.858;2022-08-21T01:01:51;15.40;99.90
26990;DHT22;14537;47.788;11.858;2022-08-21T01:04:17;15.40;99.90
26990;DHT22;14537;47.788;11.858;2022-08-21T01:06:43;15.40;99.90
26990;DHT22;14537;47.788;11.858;2022-08-21T01:09:09;15.40;99.90
26990;DHT22;14537;47.788;11.858;2022-08-21T01:11:35;15.40;99.90
26990;DHT22;14537;47.788;11.858;2022-08-21T01:14:02;15.40;99.90
26990;DHT22;14537;47.788;11.858;2022-08-21T01:16:27;15.40;99.90
26990;DHT22;14537;47.788;11.858;2022-08-21T01:18:53;15.40;99.90
26990;DHT22;14537;47.788;11.858;2022-08-21T01:21:20;15.30;99.90
26990;DHT22;14537;47.788;11.858;2022-08-21T01:23:48;15.30;99.90
26990;DHT22;14537;47.788;11.858;2022-08-21T01:26:15;15.40;99.90
26990;DHT22;14537;47.788;11.858;2022-08-21T01:29:07;15.30;99.90
26990;DHT22;14537;47.788;11.858;2022-08-21T01:31:28;15.30;99.90
26990;DHT22;14537;47.788;11.858;2022-08-21T01:33:54;15.30;99.90
26990;DHT22;14537;47.788;11.858;2022-08-21T01:36:20;15.20;99.90
26990;DHT22;14537;47.788;11.858;2022-08-21T01:38:46;15.20;99.90
26990;DHT22;14537;47.788;11.858;2022-08-21T01:41:12;15.20;99.90
26990;DHT22;14537;47.788;11.858;2022-08-21T01:43:38;15.20;99.90
26990;DHT22;14537;47.788;11.858;2022-08-21T01:46:04;15.20;99.90
26990;DHT22;14537;47.788;11.858;2022-08-21T01:48:29;15.20;99.90
26990;DHT22;14537;47.788;11.858;2022-08-21T01:50:55;15.20;99.90
26990;DHT22;14537;47.788;11.858;2022-08-21T01:53:21;15.10;99.90
26990;DHT22;14537;47.788;11.858;2022-08-21T01:55:46;15.20;99.90
26990;DHT22;14537;47.788;11.858;2022-08-21T01:58:12;15.20;99.90
26990;DHT22;14537;47.788;11.858;2022-08-21T02:00:37;15.20;99.90
26990;DHT22;14537;47.788;11.858;2022-08-21T02:03:03;15.30;99.90
26990;DHT22;14537;47.788;11.858;2022-08-21T02:05:29;15.30;99.90
26990;DHT22;14537;47.788;11.858;2022-08-21T02:07:56;15.30;99.90
26990;DHT22;14537;47.788;11.858;2022-08-21T02:10:24;15.30;99.90
26990;DHT22;14537;47.788;11.858;2022-08-21T02:12:49;15.30;99.90
26990;DHT22;14537;47.788;11.858;2022-08-21T02:15:15;15.20;99.90
26990;DHT22;14537;47.788;11.858;2022-08-21T02:17:45;15.20;99.90
26990;DHT22;14537;47.788;11.858;2022-08-21T02:20:14;15.30;99.90
26990;DHT22;14537;47.788;11.858;2022-08-21T02:22:40;15.30;99.90
26990;DHT22;14537;47.788;11.858;2022-08-21T02:25:06;15.30;99.90
26990;DHT22;14537;47.788;11.858;2022-08-21T02:27:37;15.30;99.90
26990;DHT22;14537;47.788;11.858;2022-08-21T02:30:03;15.30;99.90
26990;DHT22;14537;47.788;11.858;2022-08-21T02:32:29;15.30;99.90
26990;DHT22;14537;47.788;11.858;2022-08-21T02:34:56;15.30;99.90
26990;DHT22;14537;47.788;11.858;2022-08-21T02:37:22;15.30;99.90
26990;DHT22;14537;47.788;11.858;2022-08-21T02:39:48;15.40;99.90
26990;DHT22;14537;47.788;11.858;2022-08-21T02:42:13;15.40;99.90
26990;DHT22;14537;47.788;11.858;2022-08-21T02:44:39;15.30;99.90
26990;DHT22;14537;47.788;11.858;2022-08-21T02:47:05;15.30;99.90
26990;DHT22;14537;47.788;11.858;2022-08-21T02:49:30;15.20;99.90
26990;DHT22;14537;47.788;11.858;2022-08-21T02:51:56;15.20;99.90
26990;DHT22;14537;47.788;11.858;2022-08-21T02:54:21;15.20;99.90
26990;DHT22;14537;47.788;11.858;2022-08-21T02:56:47;15.20;99.90
26990;DHT22;14537;47.788;11.858;2022-08-21T02:59:13;15.20;99.90
26990;DHT22;14537;47.788;11.858;2022-08-21T03:01:38;15.20;99.90
26990;DHT22;14537;47.788;11.858;2022-08-21T03:04:04;15.10;99.90
26990;DHT22;14537;47.788;11.858;2022-08-21T03:06:29;15.10;99.90
26990;DHT22;14537;47.788;11.858;2022-08-21T03:08:55;15.10;99.90
26990;DHT22;14537;47.788;11.858;2022-08-21T03:11:20;15.00;99.90
26990;DHT22;14537;47.788;11.858;2022-08-21T03:13:46;14.90;99.90
26990;DHT22;14537;47.788;11.858;2022-08-21T03:16:11;14.90;99.90
26990;DHT22;14537;47.788;11.858;2022-08-21T03:18:37;14.90;99.90
26990;DHT22;14537;47.788;11.858;2022-08-21T03:21:03;14.80;99.90
26990;DHT22;14537;47.788;11.858;2022-08-21T03:23:29;14.80;99.90
26990;DHT22;14537;47.788;11.858;2022-08-21T03:25:56;14.70;99.90
26990;DHT22;14537;47.788;11.858;2022-08-21T03:28:21;14.70;99.90
26990;DHT22;14537;47.788;11.858;2022-08-21T03:30:48;14.70;99.90
26990;DHT22;14537;47.788;11.858;2022-08-21T03:33:13;14.60;99.90
26990;DHT22;14537;47.788;11.858;2022-08-21T03:35:39;14.60;99.90
26990;DHT22;14537;47.788;11.858;2022-08-21T03:38:05;14.50;99.90
26990;DHT22;14537;47.788;11.858;2022-08-21T03:40:31;14.50;99.90
26990;DHT22;14537;47.788;11.858;2022-08-21T03:42:57;14.50;99.90
26990;DHT22;14537;47.788;11.858;2022-08-21T03:45:24;14.40;99.90
26990;DHT22;14537;47.788;11.858;2022-08-21T03:47:56;14.30;99.90
26990;DHT22;14537;47.788;11.858;2022-08-21T03:50:26;14.30;99.90
26990;DHT22;14537;47.788;11.858;2022-08-21T03:52:53;14.20;99.90
26990;DHT22;14537;47.788;11.858;2022-08-21T03:55:19;14.20;99.90
26990;DHT22;14537;47.788;11.858;2022-08-21T03:57:45;14.20;99.90
26990;DHT22;14537;47.788;11.858;2022-08-21T04:00:11;14.20;99.90
26990;DHT22;14537;47.788;11.858;2022-08-21T04:02:37;14.10;99.90
26990;DHT22;14537;47.788;11.858;2022-08-21T04:05:03;14.10;99.90
26990;DHT22;14537;47.788;11.858;2022-08-21T04:07:29;14.10;99.90
26990;DHT22;14537;47.788;11.858;2022-08-21T04:09:55;14.10;99.90
26990;DHT22;14537;47.788;11.858;2022-08-21T04:12:20;14.00;99.90
26990;DHT22;14537;47.788;11.858;2022-08-21T04:14:48;13.90;99.90
26990;DHT22;14537;47.788;11.858;2022-08-21T04:17:13;13.90;99.90
26990;DHT22;14537;47.788;11.858;2022-08-21T04:19:39;13.90;99.90
26990;DHT22;14537;47.788;11.858;2022-08-21T04:22:05;13.90;99.90
26990;DHT22;14537;47.788;11.858;2022-08-21T04:24:30;13.90;99.90
26990;DHT22;14537;47.788;11.858;2022-08-21T04:26:56;13.90;99.90
26990;DHT22;14537;47.788;11.858;2022-08-21T04:29:21;13.80;99.90
26990;DHT22;14537;47.788;11.858;2022-08-21T04:31:47;13.80;99.90
26990;DHT22;14537;47.788;11.858;2022-08-21T04:34:12;13.90;99.90
26990;DHT22;14537;47.788;11.858;2022-08-21T04:36:39;13.90;99.90
26990;DHT22;14537;47.788;11.858;2022-08-21T04:39:04;13.80;99.90
26990;DHT22;14537;47.788;11.858;2022-08-21T04:41:30;13.90;99.90
26990;DHT22;14537;47.788;11.858;2022-08-21T04:43:56;13.80;99.90
26990;DHT22;14537;47.788;11.858;2022-08-21T04:46:22;13.70;99.90
26990;DHT22;14537;47.788;11.858;2022-08-21T04:48:48;13.70;99.90
26990;DHT22;14537;47.788;11.858;2022-08-21T04:53:47;13.60;99.90
26990;DHT22;14537;47.788;11.858;2022-08-21T04:56:14;13.60;99.90
26990;DHT22;14537;47.788;11.858;2022-08-21T04:58:40;13.60;99.90
26990;DHT22;14537;47.788;11.858;2022-08-21T05:01:08;13.60;99.90
26990;DHT22;14537;47.788;11.858;2022-08-21T05:03:36;13.70;99.90
26990;DHT22;14537;47.788;11.858;2022-08-21T05:06:03;13.60;99.90
26990;DHT22;14537;47.788;11.858;2022-08-21T05:08:30;13.70;99.90
26990;DHT22;14537;47.788;11.858;2022-08-21T05:10:55;13.80;99.90
26990;DHT22;14537;47.788;11.858;2022-08-21T05:13:21;13.80;99.90
26990;DHT22;14537;47.788;11.858;2022-08-21T05:15:47;13.80;99.90
26990;DHT22;14537;47.788;11.858;2022-08-21T05:18:13;13.80;99.90
26990;DHT22;14537;47.788;11.858;2022-08-21T05:20:38;13.80;99.90
26990;DHT22;14537;47.788;11.858;2022-08-21T05:23:08;13.80;99.90
26990;DHT22;14537;47.788;11.858;2022-08-21T05:25:34;13.80;99.90
26990;DHT22;14537;47.788;11.858;2022-08-21T05:27:59;13.80;99.90
26990;DHT22;14537;47.788;11.858;2022-08-21T05:30:25;13.90;99.90
26990;DHT22;14537;47.788;11.858;2022-08-21T05:32:55;14.00;99.90
26990;DHT22;14537;47.788;11.858;2022-08-21T05:35:21;14.10;99.90
26990;DHT22;14537;47.788;11.858;2022-08-21T05:37:47;14.10;99.90
26990;DHT22;14537;47.788;11.858;2022-08-21T05:40:12;14.20;99.90
26990;DHT22;14537;47.788;11.858;2022-08-21T05:42:39;14.20;99.90
26990;DHT22;14537;47.788;11.858;2022-08-21T05:45:05;14.30;99.90
26990;DHT22;14537;47.788;11.858;2022-08-21T05:47:30;14.40;99.90
26990;DHT22;14537;47.788;11.858;2022-08-21T05:49:56;14.50;99.90
26990;DHT22;14537;47.788;11.858;2022-08-21T05:52:21;14.60;99.90
26990;DHT22;14537;47.788;11.858;2022-08-21T05:54:47;14.70;99.90
26990;DHT22;14537;47.788;11.858;2022-08-21T05:57:13;14.70;99.90
26990;DHT22;14537;47.788;11.858;2022-08-21T05:59:38;14.80;99.90
26990;DHT22;14537;47.788;11.858;2022-08-21T06:02:04;14.80;99.90
26990;DHT22;14537;47.788;11.858;2022-08-21T06:04:30;14.90;99.90
26990;DHT22;14537;47.788;11.858;2022-08-21T06:06:55;15.10;99.90
26990;DHT22;14537;47.788;11.858;2022-08-21T06:09:21;15.30;99.90
26990;DHT22;14537;47.788;11.858;2022-08-21T06:11:47;15.40;99.90
26990;DHT22;14537;47.788;11.858;2022-08-21T06:14:15;15.60;99.90
26990;DHT22;14537;47.788;11.858;2022-08-21T06:16:41;15.70;99.90
26990;DHT22;14537;47.788;11.858;2022-08-21T06:19:07;15.70;99.90
26990;DHT22;14537;47.788;11.858;2022-08-21T06:21:33;15.70;99.90
26990;DHT22;14537;47.788;11.858;2022-08-21T06:23:58;15.60;99.90
26990;DHT22;14537;47.788;11.858;2022-08-21T06:26:24;15.70;99.90
26990;DHT22;14537;47.788;11.858;2022-08-21T06:28:49;15.70;99.90
26990;DHT22;14537;47.788;11.858;2022-08-21T06:31:16;15.80;99.90
26990;DHT22;14537;47.788;11.858;2022-08-21T06:33:42;15.80;99.90
26990;DHT22;14537;47.788;11.858;2022-08-21T06:36:08;15.80;99.90
26990;DHT22;14537;47.788;11.858;2022-08-21T06:38:34;15.80;99.90
26990;DHT22;14537;47.788;11.858;2022-08-21T06:41:00;15.80;99.90
26990;DHT22;14537;47.788;11.858;2022-08-21T06:43:26;16.00;99.90
26990;DHT22;14537;47.788;11.858;2022-08-21T06:45:51;16.00;99.90
26990;DHT22;14537;47.788;11.858;2022-08-21T06:48:17;16.00;99.90
26990;DHT22;14537;47.788;11.858;2022-08-21T06:50:42;16.10;99.90
26990;DHT22;14537;47.788;11.858;2022-08-21T06:53:12;16.10;99.90
26990;DHT22;14537;47.788;11.858;2022-08-21T06:55:38;16.10;99.90
26990;DHT22;14537;47.788;11.858;2022-08-21T06:58:04;16.10;99.90
26990;DHT22;14537;47.788;11.858;2022-08-21T07:00:31;16.10;99.90
26990;DHT22;14537;47.788;11.858;2022-08-21T07:02:56;16.10;99.90
26990;DHT22;14537;47.788;11.858;2022-08-21T07:05:24;16.40;99.90
26990;DHT22;14537;47.788;11.858;2022-08-21T07:07:50;16.40;99.90
26990;DHT22;14537;47.788;11.858;2022-08-21T07:10:15;16.50;99.90
26990;DHT22;14537;47.788;11.858;2022-08-21T07:12:41;16.50;99.90
26990;DHT22;14537;47.788;11.858;2022-08-21T07:15:07;16.60;99.90
26990;DHT22;14537;47.788;11.858;2022-08-21T07:17:32;16.60;99.90
26990;DHT22;14537;47.788;11.858;2022-08-21T07:19:58;16.60;99.90
26990;DHT22;14537;47.788;11.858;2022-08-21T07:22:23;16.60;99.90
26990;DHT22;14537;47.788;11.858;2022-08-21T07:24:49;16.60;99.90
26990;DHT22;14537;47.788;11.858;2022-08-21T07:27:15;16.70;99.90
26990;DHT22;14537;47.788;11.858;2022-08-21T07:29:40;16.70;99.90
26990;DHT22;14537;47.788;11.858;2022-08-21T07:32:06;16.80;99.90
26990;DHT22;14537;47.788;11.858;2022-08-21T07:34:32;16.90;99.90
26990;DHT22;14537;47.788;11.858;2022-08-21T07:36:57;17.00;99.90
26990;DHT22;14537;47.788;11.858;2022-08-21T07:39:23;17.10;99.90
26990;DHT22;14537;47.788;11.858;2022-08-21T07:41:49;17.20;99.90
26990;DHT22;14537;47.788;11.858;2022-08-21T07:44:15;17.20;99.90
26990;DHT22;14537;47.788;11.858;2022-08-21T07:46:40;17.20;99.90
26990;DHT22;14537;47.788;11.858;2022-08-21T07:49:06;17.20;99.90
26990;DHT22;14537;47.788;11.858;2022-08-21T07:51:31;17.30;99.90
26990;DHT22;14537;47.788;11.858;2022-08-21T07:53:58;17.30;99.90
26990;DHT22;14537;47.788;11.858;2022-08-21T07:56:25;17.40;99.90
26990;DHT22;14537;47.788;11.858;2022-08-21T07:58:50;17.40;99.90
26990;DHT22;14537;47.788;11.858;2022-08-21T08:01:16;17.50;99.90
26990;DHT22;14537;47.788;11.858;2022-08-21T08:03:42;17.60;99.90
26990;DHT22;14537;47.788;11.858;2022-08-21T08:06:08;17.70;99.90
26990;DHT22;14537;47.788;11.858;2022-08-21T08:08:38;17.70;99.90
26990;DHT22;14537;47.788;11.858;2022-08-21T08:11:04;17.70;99.90
26990;DHT22;14537;47.788;11.858;2022-08-21T08:13:30;17.60;99.90
26990;DHT22;14537;47.788;11.858;2022-08-21T08:15:55;17.70;99.90
26990;DHT22;14537;47.788;11.858;2022-08-21T08:18:21;17.90;99.90
26990;DHT22;14537;47.788;11.858;2022-08-21T08:20:47;18.00;99.90
26990;DHT22;14537;47.788;11.858;2022-08-21T08:23:13;17.90;99.90
26990;DHT22;14537;47.788;11.858;2022-08-21T08:25:39;18.00;99.90
26990;DHT22;14537;47.788;11.858;2022-08-21T08:28:05;18.00;99.90
26990;DHT22;14537;47.788;11.858;2022-08-21T08:30:30;18.00;99.90
26990;DHT22;14537;47.788;11.858;2022-08-21T08:32:56;18.00;99.90
26990;DHT22;14537;47.788;11.858;2022-08-21T08:35:22;18.20;99.90
26990;DHT22;14537;47.788;11.858;2022-08-21T08:37:48;18.20;99.90
26990;DHT22;14537;47.788;11.858;2022-08-21T08:42:58;18.00;99.90
26990;DHT22;14537;47.788;11.858;2022-08-21T08:45:24;18.10;99.90
26990;DHT22;14537;47.788;11.858;2022-08-21T08:48:01;18.10;99.90
26990;DHT22;14537;47.788;11.858;2022-08-21T08:50:33;18.00;99.90
26990;DHT22;14537;47.788;11.858;2022-08-21T08:53:04;18.00;99.90
26990;DHT22;14537;47.788;11.858;2022-08-21T08:55:33;18.30;99.90
26990;DHT22;14537;47.788;11.858;2022-08-21T08:57:59;18.40;99.90
26990;DHT22;14537;47.788;11.858;2022-08-21T09:00:26;18.50;99.90
26990;DHT22;14537;47.788;11.858;2022-08-21T09:02:53;18.40;99.90
26990;DHT22;14537;47.788;11.858;2022-08-21T09:05:24;18.40;99.90
26990;DHT22;14537;47.788;11.858;2022-08-21T09:15:29;18.90;99.90
26990;DHT22;14537;47.788;11.858;2022-08-21T09:18:42;19.00;99.90
26990;DHT22;14537;47.788;11.858;2022-08-21T09:26:04;18.90;99.90
26990;DHT22;14537;47.788;11.858;2022-08-21T09:28:35;19.10;99.90
26990;DHT22;14537;47.788;11.858;2022-08-21T09:31:02;19.10;99.90
26990;DHT22;14537;47.788;11.858;2022-08-21T09:33:28;19.10;99.90
26990;DHT22;14537;47.788;11.858;2022-08-21T09:35:55;19.20;99.90
26990;DHT22;14537;47.788;11.858;2022-08-21T09:38:28;19.30;99.90
26990;DHT22;14537;47.788;11.858;2022-08-21T09:41:12;19.40;99.90
26990;DHT22;14537;47.788;11.858;2022-08-21T09:43:38;19.40;99.90
26990;DHT22;14537;47.788;11.858;2022-08-21T09:46:08;19.60;99.90
26990;DHT22;14537;47.788;11.858;2022-08-21T09:48:43;19.60;99.90
26990;DHT22;14537;47.788;11.858;2022-08-21T09:51:11;19.50;99.90
26990;DHT22;14537;47.788;11.858;2022-08-21T09:53:38;19.50;99.90
26990;DHT22;14537;47.788;11.858;2022-08-21T09:56:16;19.50;99.90
26990;DHT22;14537;47.788;11.858;2022-08-21T09:59:00;19.80;99.90
26990;DHT22;14537;47.788;11.858;2022-08-21T10:01:26;19.80;99.90
26990;DHT22;14537;47.788;11.858;2022-08-21T10:04:02;19.70;99.90
26990;DHT22;14537;47.788;11.858;2022-08-21T10:06:28;19.50;99.90
26990;DHT22;14537;47.788;11.858;2022-08-21T10:09:04;19.50;99.90
26990;DHT22;14537;47.788;11.858;2022-08-21T10:11:30;19.40;99.90
26990;DHT22;14537;47.788;11.858;2022-08-21T10:13:59;19.40;99.90
26990;DHT22;14537;47.788;11.858;2022-08-21T10:21:27;19.70;99.90
26990;DHT22;14537;47.788;11.858;2022-08-21T10:24:06;19.70;99.90
26990;DHT22;14537;47.788;11.858;2022-08-21T10:26:55;19.90;99.90
26990;DHT22;14537;47.788;11.858;2022-08-21T10:29:38;20.10;99.90
26990;DHT22;14537;47.788;11.858;2022-08-21T10:34:46;20.10;99.90
26990;DHT22;14537;47.788;11.858;2022-08-21T10:37:22;20.10;99.90
26990;DHT22;14537;47.788;11.858;2022-08-21T10:45:08;20.00;99.90
26990;DHT22;14537;47.788;11.858;2022-08-21T10:47:39;20.20;99.90
26990;DHT22;14537;47.788;11.858;2022-08-21T10:50:12;20.30;99.90
26990;DHT22;14537;47.788;11.858;2022-08-21T10:55:36;20.40;99.90
26990;DHT22;14537;47.788;11.858;2022-08-21T11:00:39;20.50;99.90
26990;DHT22;14537;47.788;11.858;2022-08-21T11:05:35;20.80;99.90
26990;DHT22;14537;47.788;11.858;2022-08-21T11:16:12;21.30;99.90
26990;DHT22;14537;47.788;11.858;2022-08-21T11:19:22;21.50;99.70
26990;DHT22;14537;47.788;11.858;2022-08-21T11:24:02;21.50;98.60
26990;DHT22;14537;47.788;11.858;2022-08-21T11:28:59;21.20;98.40
26990;DHT22;14537;47.788;11.858;2022-08-21T11:31:46;21.20;98.70
26990;DHT22;14537;47.788;11.858;2022-08-21T11:34:22;21.40;97.40
26990;DHT22;14537;47.788;11.858;2022-08-21T11:36:51;21.60;97.40
26990;DHT22;14537;47.788;11.858;2022-08-21T11:41:51;21.70;96.70
26990;DHT22;14537;47.788;11.858;2022-08-21T11:46:57;21.50;98.70
26990;DHT22;14537;47.788;11.858;2022-08-21T11:54:30;21.60;99.90
26990;DHT22;14537;47.788;11.858;2022-08-21T11:57:02;21.70;99.50
26990;DHT22;14537;47.788;11.858;2022-08-21T11:59:45;21.80;99.90
26990;DHT22;14537;47.788;11.858;2022-08-21T12:02:13;22.00;99.10
26990;DHT22;14537;47.788;11.858;2022-08-21T12:04:47;22.00;98.70
26990;DHT22;14537;47.788;11.858;2022-08-21T12:07:16;22.20;98.70
26990;DHT22;14537;47.788;11.858;2022-08-21T12:09:51;22.50;99.20
26990;DHT22;14537;47.788;11.858;2022-08-21T12:12:29;22.70;96.70
26990;DHT22;14537;47.788;11.858;2022-08-21T12:17:40;23.00;96.50
26990;DHT22;14537;47.788;11.858;2022-08-21T12:25:35;23.10;95.80
26990;DHT22;14537;47.788;11.858;2022-08-21T12:28:11;23.10;93.60
26990;DHT22;14537;47.788;11.858;2022-08-21T12:30:38;23.20;94.90
26990;DHT22;14537;47.788;11.858;2022-08-21T12:35:45;23.00;92.20
26990;DHT22;14537;47.788;11.858;2022-08-21T12:40:52;23.00;91.10
26990;DHT22;14537;47.788;11.858;2022-08-21T12:43:33;22.80;89.50
26990;DHT22;14537;47.788;11.858;2022-08-21T12:45:59;22.90;90.90
26990;DHT22;14537;47.788;11.858;2022-08-21T12:48:27;23.20;91.30
26990;DHT22;14537;47.788;11.858;2022-08-21T12:50:55;23.30;90.30
26990;DHT22;14537;47.788;11.858;2022-08-21T12:53:29;23.60;91.10
26990;DHT22;14537;47.788;11.858;2022-08-21T12:55:55;23.60;93.10
26990;DHT22;14537;47.788;11.858;2022-08-21T12:58:26;23.60;91.30
26990;DHT22;14537;47.788;11.858;2022-08-21T13:00:53;23.50;92.80
26990;DHT22;14537;47.788;11.858;2022-08-21T13:03:19;23.60;90.90
26990;DHT22;14537;47.788;11.858;2022-08-21T13:05:46;23.50;92.00
26990;DHT22;14537;47.788;11.858;2022-08-21T13:08:12;23.40;93.60
26990;DHT22;14537;47.788;11.858;2022-08-21T13:10:39;23.30;92.80
26990;DHT22;14537;47.788;11.858;2022-08-21T13:13:06;23.10;94.40
26990;DHT22;14537;47.788;11.858;2022-08-21T13:15:34;22.90;95.40
26990;DHT22;14537;47.788;11.858;2022-08-21T13:18:00;22.90;95.50
26990;DHT22;14537;47.788;11.858;2022-08-21T13:20:29;22.60;94.90
26990;DHT22;14537;47.788;11.858;2022-08-21T13:22:55;22.80;94.70
26990;DHT22;14537;47.788;11.858;2022-08-21T13:25:21;22.80;95.30
26990;DHT22;14537;47.788;11.858;2022-08-21T13:27:57;23.20;94.70
26990;DHT22;14537;47.788;11.858;2022-08-21T13:30:23;23.40;94.80
26990;DHT22;14537;47.788;11.858;2022-08-21T13:32:50;23.50;93.80
26990;DHT22;14537;47.788;11.858;2022-08-21T13:35:17;23.50;94.10
26990;DHT22;14537;47.788;11.858;2022-08-21T13:37:44;23.80;93.90
26990;DHT22;14537;47.788;11.858;2022-08-21T13:40:12;23.90;92.60
26990;DHT22;14537;47.788;11.858;2022-08-21T13:42:43;23.80;92.10
26990;DHT22;14537;47.788;11.858;2022-08-21T13:45:14;23.80;92.80
26990;DHT22;14537;47.788;11.858;2022-08-21T13:47:39;24.10;91.80
26990;DHT22;14537;47.788;11.858;2022-08-21T13:50:05;24.10;93.10
26990;DHT22;14537;47.788;11.858;2022-08-21T13:52:32;24.40;92.00
26990;DHT22;14537;47.788;11.858;2022-08-21T13:54:59;24.50;90.70
26990;DHT22;14537;47.788;11.858;2022-08-21T13:57:27;24.20;91.70
26990;DHT22;14537;47.788;11.858;2022-08-21T14:00:09;24.20;92.60
26990;DHT22;14537;47.788;11.858;2022-08-21T14:02:37;24.10;92.60
26990;DHT22;14537;47.788;11.858;2022-08-21T14:05:03;23.80;91.40
26990;DHT22;14537;47.788;11.858;2022-08-21T14:07:29;23.80;92.70
26990;DHT22;14537;47.788;11.858;2022-08-21T14:10:00;23.60;91.30
26990;DHT22;14537;47.788;11.858;2022-08-21T14:12:28;23.40;93.00
26990;DHT22;14537;47.788;11.858;2022-08-21T14:14:55;23.30;93.00
26990;DHT22;14537;47.788;11.858;2022-08-21T14:17:28;23.60;92.90
26990;DHT22;14537;47.788;11.858;2022-08-21T14:19:54;23.70;93.40
26990;DHT22;14537;47.788;11.858;2022-08-21T14:27:27;23.40;92.30
26990;DHT22;14537;47.788;11.858;2022-08-21T14:29:57;23.30;91.70
26990;DHT22;14537;47.788;11.858;2022-08-21T14:32:23;23.10;92.40
26990;DHT22;14537;47.788;11.858;2022-08-21T14:34:51;23.10;92.80
26990;DHT22;14537;47.788;11.858;2022-08-21T14:37:17;23.10;93.20
26990;DHT22;14537;47.788;11.858;2022-08-21T14:39:43;23.10;92.50
26990;DHT22;14537;47.788;11.858;2022-08-21T14:42:09;23.30;94.30
26990;DHT22;14537;47.788;11.858;2022-08-21T14:44:34;23.80;92.40
26990;DHT22;14537;47.788;11.858;2022-08-21T14:47:00;24.70;94.40
26990;DHT22;14537;47.788;11.858;2022-08-21T14:49:27;25.50;92.20
26990;DHT22;14537;47.788;11.858;2022-08-21T14:51:53;25.80;87.00
26990;DHT22;14537;47.788;11.858;2022-08-21T14:54:22;26.10;90.00
26990;DHT22;14537;47.788;11.858;2022-08-21T14:56:48;25.80;84.60
26990;DHT22;14537;47.788;11.858;2022-08-21T14:59:14;25.20;86.30
26990;DHT22;14537;47.788;11.858;2022-08-21T15:01:39;24.70;87.20
26990;DHT22;14537;47.788;11.858;2022-08-21T15:04:05;25.90;87.20
26990;DHT22;14537;47.788;11.858;2022-08-21T15:06:30;26.40;84.80
26990;DHT22;14537;47.788;11.858;2022-08-21T15:08:56;26.40;85.30
26990;DHT22;14537;47.788;11.858;2022-08-21T15:11:22;26.80;83.90
26990;DHT22;14537;47.788;11.858;2022-08-21T15:13:49;27.10;82.40
26990;DHT22;14537;47.788;11.858;2022-08-21T15:16:16;26.30;81.20
26990;DHT22;14537;47.788;11.858;2022-08-21T15:18:42;25.30;85.40
26990;DHT22;14537;47.788;11.858;2022-08-21T15:21:08;25.30;86.20
26990;DHT22;14537;47.788;11.858;2022-08-21T15:23:33;25.80;89.60
26990;DHT22;14537;47.788;11.858;2022-08-21T15:26:00;26.30;85.80
26990;DHT22;14537;47.788;11.858;2022-08-21T15:28:25;27.10;82.70
26990;DHT22;14537;47.788;11.858;2022-08-21T15:30:51;27.00;81.00
26990;DHT22;14537;47.788;11.858;2022-08-21T15:33:17;27.10;81.40
26990;DHT22;14537;47.788;11.858;2022-08-21T15:35:43;26.60;84.30
26990;DHT22;14537;47.788;11.858;2022-08-21T15:38:11;26.00;83.00
26990;DHT22;14537;47.788;11.858;2022-08-21T15:40:37;26.00;83.20
26990;DHT22;14537;47.788;11.858;2022-08-21T15:43:04;26.60;83.10
26990;DHT22;14537;47.788;11.858;2022-08-21T15:45:30;27.80;81.10
26990;DHT22;14537;47.788;11.858;2022-08-21T15:47:56;28.50;76.90
26990;DHT22;14537;47.788;11.858;2022-08-21T15:50:22;28.30;74.90
26990;DHT22;14537;47.788;11.858;2022-08-21T15:52:48;26.90;79.80
26990;DHT22;14537;47.788;11.858;2022-08-21T15:55:14;27.10;78.70
26990;DHT22;14537;47.788;11.858;2022-08-21T15:57:44;26.70;77.60
26990;DHT22;14537;47.788;11.858;2022-08-21T16:00:18;27.30;78.80
26990;DHT22;14537;47.788;11.858;2022-08-21T16:02:46;27.50;76.70
26990;DHT22;14537;47.788;11.858;2022-08-21T16:05:12;27.10;76.60
26990;DHT22;14537;47.788;11.858;2022-08-21T16:07:39;26.80;78.40
26990;DHT22;14537;47.788;11.858;2022-08-21T16:10:05;26.60;79.80
26990;DHT22;14537;47.788;11.858;2022-08-21T16:12:31;26.80;78.00
26990;DHT22;14537;47.788;11.858;2022-08-21T16:14:58;27.90;76.60
26990;DHT22;14537;47.788;11.858;2022-08-21T16:17:25;28.30;76.10
26990;DHT22;14537;47.788;11.858;2022-08-21T16:19:52;28.80;72.50
26990;DHT22;14537;47.788;11.858;2022-08-21T16:22:18;28.40;74.20
26990;DHT22;14537;47.788;11.858;2022-08-21T16:24:43;28.40;74.80
26990;DHT22;14537;47.788;11.858;2022-08-21T16:27:09;28.30;75.00
26990;DHT22;14537;47.788;11.858;2022-08-21T16:29:36;28.10;74.20
26990;DHT22;14537;47.788;11.858;2022-08-21T16:32:02;27.20;77.10
26990;DHT22;14537;47.788;11.858;2022-08-21T16:34:28;26.40;79.10
26990;DHT22;14537;47.788;11.858;2022-08-21T16:36:54;26.00;80.20